createdAt,value
2018-03-03T00:00:54.330Z,26.93
2018-03-03T00:03:21.718Z,26.70
2018-03-03T00:05:49.117Z,24.37
2018-03-03T00:08:16.468Z,26.20
2018-03-03T00:10:43.817Z,25.43
2018-03-03T00:13:11.208Z,23.77
2018-03-03T00:15:38.589Z,24.77
2018-03-03T00:18:05.944Z,26.47
2018-03-03T00:20:33.319Z,26.13
2018-03-03T00:23:00.684Z,24.57
2018-03-03T00:25:28.074Z,24.90
2018-03-03T00:27:55.437Z,24.27
2018-03-03T00:30:22.792Z,25.00
2018-03-03T00:32:50.200Z,24.27
2018-03-03T00:35:17.573Z,24.47
2018-03-03T00:37:44.937Z,24.47
2018-03-03T00:40:12.321Z,23.63
2018-03-03T00:42:39.673Z,23.57
2018-03-03T00:45:07.061Z,23.50
2018-03-03T00:47:34.501Z,24.63
2018-03-03T00:50:01.902Z,24.47
2018-03-03T00:52:29.258Z,26.20
2018-03-03T00:54:56.616Z,23.10
2018-03-03T00:57:24.004Z,23.47
2018-03-03T00:59:51.401Z,22.77
2018-03-03T01:02:18.761Z,24.00
2018-03-03T01:04:46.117Z,21.80
2018-03-03T01:07:13.528Z,23.30
2018-03-03T01:09:40.884Z,25.50
2018-03-03T01:12:08.240Z,21.90
2018-03-03T01:14:35.641Z,23.90
2018-03-03T01:17:03.017Z,24.03
2018-03-03T01:19:30.382Z,23.53
2018-03-03T01:21:57.777Z,24.10
2018-03-03T01:24:25.129Z,23.90
2018-03-03T01:26:52.533Z,24.77
2018-03-03T01:29:19.956Z,21.10
2018-03-03T01:31:47.354Z,23.73
2018-03-03T01:34:14.706Z,21.87
2018-03-03T01:36:42.609Z,22.27
2018-03-03T01:39:09.961Z,24.00
2018-03-03T01:41:37.357Z,22.80
2018-03-03T01:44:04.741Z,21.83
2018-03-03T01:46:32.102Z,21.80
2018-03-03T01:48:59.497Z,22.10
2018-03-03T01:51:32.829Z,22.63
2018-03-03T01:54:00.268Z,21.40
2018-03-03T01:56:27.628Z,21.50
2018-03-03T01:58:55.008Z,23.47
2018-03-03T02:01:22.413Z,21.87
2018-03-03T02:03:49.766Z,22.07
2018-03-03T02:06:17.126Z,21.50
2018-03-03T02:08:44.505Z,23.17
2018-03-03T02:11:11.854Z,20.40
2018-03-03T02:13:39.260Z,21.30
2018-03-03T02:16:06.613Z,22.77
2018-03-03T02:18:33.971Z,20.37
2018-03-03T02:21:01.377Z,22.27
2018-03-03T02:23:28.740Z,23.73
2018-03-03T02:25:56.113Z,20.70
2018-03-03T02:28:23.493Z,22.07
2018-03-03T02:30:50.849Z,21.67
2018-03-03T02:33:18.249Z,18.80
2018-03-03T02:35:45.605Z,22.30
2018-03-03T02:38:12.996Z,22.17
2018-03-03T02:40:40.351Z,20.73
2018-03-03T02:43:07.760Z,22.83
2018-03-03T02:45:35.149Z,22.43
2018-03-03T02:48:02.511Z,22.87
2018-03-03T02:50:29.872Z,22.50
2018-03-03T02:52:57.273Z,21.60
2018-03-03T02:55:24.642Z,20.37
2018-03-03T02:57:52.006Z,19.57
2018-03-03T03:00:19.386Z,24.80
2018-03-03T03:02:46.785Z,20.50
2018-03-03T03:05:14.150Z,22.40
2018-03-03T03:07:42.321Z,20.70
2018-03-03T03:10:09.752Z,20.40
2018-03-03T03:12:37.089Z,22.00
2018-03-03T03:15:04.472Z,21.57
2018-03-03T03:17:31.829Z,21.60
2018-03-03T03:20:00.186Z,20.37
2018-03-03T03:22:27.563Z,21.37
2018-03-03T03:24:54.921Z,20.13
2018-03-03T03:27:22.327Z,19.00
2018-03-03T03:29:49.677Z,18.90
2018-03-03T03:32:17.037Z,23.40
2018-03-03T03:34:44.430Z,20.77
2018-03-03T03:37:11.786Z,21.20
2018-03-03T03:39:39.145Z,20.33
2018-03-03T03:42:06.553Z,22.10
2018-03-03T03:44:33.916Z,21.27
2018-03-03T03:47:01.273Z,21.67
2018-03-03T03:49:28.670Z,22.03
2018-03-03T03:51:56.024Z,22.60
2018-03-03T03:54:23.385Z,21.17
2018-03-03T03:56:50.786Z,22.20
2018-03-03T03:59:18.136Z,17.83
2018-03-03T04:01:45.508Z,20.47
2018-03-03T04:04:12.900Z,22.47
2018-03-03T04:06:40.253Z,21.40
2018-03-03T04:09:07.612Z,21.07
2018-03-03T04:11:35.010Z,19.30
2018-03-03T04:14:02.361Z,20.23
2018-03-03T04:16:29.722Z,19.90
2018-03-03T04:18:57.104Z,23.33
2018-03-03T04:21:24.471Z,19.80
2018-03-03T04:23:51.874Z,20.30
2018-03-03T04:26:19.292Z,21.03
2018-03-03T04:28:46.680Z,21.50
2018-03-03T04:31:14.033Z,21.07
2018-03-03T04:33:41.421Z,21.90
2018-03-03T04:36:08.797Z,21.07
2018-03-03T04:38:36.201Z,19.13
2018-03-03T04:41:03.571Z,20.90
2018-03-03T04:43:30.929Z,20.10
2018-03-03T04:45:58.317Z,20.47
2018-03-03T04:48:25.681Z,20.93
2018-03-03T04:50:53.058Z,20.90
2018-03-03T04:53:20.421Z,21.90
2018-03-03T04:55:47.848Z,21.50
2018-03-03T04:58:16.917Z,21.70
2018-03-03T05:00:55.897Z,21.17
2018-03-03T05:03:38.981Z,19.37
2018-03-03T05:06:12.385Z,19.97
2018-03-03T05:08:39.743Z,19.90
2018-03-03T05:11:22.021Z,18.90
2018-03-03T05:13:51.954Z,20.67
2018-03-03T05:16:22.144Z,20.37
2018-03-03T05:19:10.312Z,20.17
2018-03-03T05:21:46.395Z,19.77
2018-03-03T05:24:28.664Z,19.87
2018-03-03T05:27:01.947Z,21.00
2018-03-03T05:29:39.214Z,20.70
2018-03-03T05:32:27.433Z,20.10
2018-03-03T05:35:00.457Z,20.20
2018-03-03T05:37:29.681Z,22.47
2018-03-03T05:40:02.884Z,21.47
2018-03-03T05:42:45.878Z,19.83
2018-03-03T05:45:18.985Z,21.57
2018-03-03T05:48:01.249Z,19.63
2018-03-03T05:50:34.519Z,20.70
2018-03-03T05:53:20.597Z,22.13
2018-03-03T05:55:53.653Z,21.60
2018-03-03T05:58:21.965Z,21.50
2018-03-03T06:01:10.193Z,18.33
2018-03-03T06:03:53.385Z,20.97
2018-03-03T06:06:37.501Z,19.30
2018-03-03T06:09:15.541Z,22.17
2018-03-03T06:11:42.917Z,19.90
2018-03-03T06:14:10.321Z,19.77
2018-03-03T06:16:37.685Z,20.70
2018-03-03T06:19:05.041Z,20.27
2018-03-03T06:21:32.446Z,24.10
2018-03-03T06:23:59.801Z,21.90
2018-03-03T06:26:27.154Z,19.70
2018-03-03T06:28:54.562Z,20.93
2018-03-03T06:31:21.920Z,21.30
2018-03-03T06:33:49.288Z,22.27
2018-03-03T06:36:16.700Z,21.47
2018-03-03T06:38:44.057Z,21.13
2018-03-03T06:41:11.417Z,20.43
2018-03-03T06:43:38.824Z,21.47
2018-03-03T06:46:06.204Z,22.17
2018-03-03T06:48:33.583Z,23.20
2018-03-03T06:51:00.957Z,22.40
2018-03-03T06:53:28.374Z,21.80
2018-03-03T06:55:55.790Z,23.40
2018-03-03T06:58:23.145Z,22.70
2018-03-03T07:00:50.502Z,23.30
2018-03-03T07:03:17.909Z,23.53
2018-03-03T07:05:45.266Z,23.43
2018-03-03T07:08:12.707Z,23.50
2018-03-03T07:10:40.098Z,24.77
2018-03-03T07:13:07.464Z,21.70
2018-03-03T07:15:34.826Z,22.40
2018-03-03T07:18:02.220Z,23.53
2018-03-03T07:20:29.587Z,23.40
2018-03-03T07:22:57.034Z,23.67
2018-03-03T07:25:24.422Z,22.80
2018-03-03T07:27:51.801Z,22.80
2018-03-03T07:30:19.205Z,24.07
2018-03-03T07:32:46.567Z,22.57
2018-03-03T07:35:13.928Z,24.90
2018-03-03T07:37:41.352Z,24.87
2018-03-03T07:40:08.709Z,24.63
2018-03-03T07:42:36.065Z,24.77
2018-03-03T07:45:03.473Z,23.33
2018-03-03T07:47:30.836Z,22.57
2018-03-03T07:49:58.237Z,24.80
2018-03-03T07:52:25.615Z,23.67
2018-03-03T07:54:53.492Z,24.23
2018-03-03T07:57:20.918Z,24.57
2018-03-03T07:59:48.261Z,25.40
2018-03-03T08:02:15.645Z,25.57
2018-03-03T08:04:43.044Z,25.10
2018-03-03T08:07:10.400Z,24.43
2018-03-03T08:09:37.762Z,24.80
2018-03-03T08:12:05.150Z,23.10
2018-03-03T08:14:32.513Z,24.17
2018-03-03T08:16:59.870Z,24.23
2018-03-03T08:19:27.266Z,22.70
2018-03-03T08:21:54.637Z,24.40
2018-03-03T08:24:22.003Z,22.50
2018-03-03T08:26:49.395Z,22.00
2018-03-03T08:29:16.787Z,24.30
2018-03-03T08:31:44.258Z,21.53
2018-03-03T08:34:11.614Z,21.80
2018-03-03T08:36:38.972Z,22.30
2018-03-03T08:39:06.497Z,22.30
2018-03-03T08:41:33.857Z,21.70
2018-03-03T08:44:01.269Z,20.03
2018-03-03T08:46:28.757Z,20.27
2018-03-03T08:48:56.112Z,22.43
2018-03-03T08:51:23.472Z,21.07
2018-03-03T08:53:50.861Z,23.43
2018-03-03T08:56:18.214Z,20.63
2018-03-03T08:58:46.864Z,21.23
2018-03-03T09:01:14.350Z,19.60
2018-03-03T09:03:41.705Z,19.60
2018-03-03T09:06:09.831Z,21.13
2018-03-03T09:08:37.226Z,18.43
2018-03-03T09:11:05.173Z,19.83
2018-03-03T09:13:32.624Z,20.87
2018-03-03T09:15:59.984Z,19.73
2018-03-03T09:18:27.384Z,21.77
2018-03-03T09:20:54.848Z,20.40
2018-03-03T09:23:22.330Z,21.00
2018-03-03T09:25:49.933Z,20.50
2018-03-03T09:28:17.313Z,19.50
2018-03-03T09:30:45.362Z,20.10
2018-03-03T09:33:12.770Z,19.90
2018-03-03T09:35:40.180Z,18.30
2018-03-03T09:38:07.541Z,17.50
2018-03-03T09:40:34.898Z,17.77
2018-03-03T09:43:02.404Z,17.57
2018-03-03T09:45:29.758Z,17.90
2018-03-03T09:47:57.122Z,17.57
2018-03-03T09:50:24.524Z,17.30
2018-03-03T09:52:51.877Z,18.30
2018-03-03T09:55:19.238Z,17.70
2018-03-03T09:57:46.684Z,17.77
2018-03-03T10:00:14.045Z,18.27
2018-03-03T10:02:41.429Z,18.77
2018-03-03T10:05:08.781Z,20.50
2018-03-03T10:07:36.146Z,19.27
2018-03-03T10:10:03.549Z,19.73
2018-03-03T10:12:30.906Z,18.90
2018-03-03T10:14:59.461Z,19.83
2018-03-03T10:17:26.845Z,20.33
2018-03-03T10:19:54.764Z,18.23
2018-03-03T10:22:22.185Z,20.90
2018-03-03T10:24:49.598Z,21.07
2018-03-03T10:27:17.063Z,21.00
2018-03-03T10:29:44.425Z,20.40
2018-03-03T10:32:11.820Z,19.17
2018-03-03T10:34:39.173Z,21.03
2018-03-03T10:37:06.532Z,21.80
2018-03-03T10:39:33.933Z,22.03
2018-03-03T10:42:01.286Z,21.33
2018-03-03T10:44:28.672Z,20.50
2018-03-03T10:46:56.182Z,22.10
2018-03-03T10:49:23.625Z,20.70
2018-03-03T10:51:51.113Z,21.27
2018-03-03T10:54:18.502Z,19.20
2018-03-03T10:56:45.905Z,18.30
2018-03-03T10:59:13.269Z,19.73
2018-03-03T11:01:40.621Z,18.60
2018-03-03T11:04:08.009Z,20.50
2018-03-03T11:06:35.396Z,20.07
2018-03-03T11:09:02.817Z,18.90
2018-03-03T11:11:30.213Z,19.50
2018-03-03T11:13:57.585Z,18.90
2018-03-03T11:16:25.057Z,20.30
2018-03-03T11:18:52.462Z,20.00
2018-03-03T11:21:19.820Z,21.00
2018-03-03T11:23:47.169Z,19.07
2018-03-03T11:26:14.577Z,20.03
2018-03-03T11:28:41.954Z,17.10
2018-03-03T11:31:09.306Z,17.43
2018-03-03T11:33:36.695Z,18.03
2018-03-03T11:36:04.045Z,20.00
2018-03-03T11:38:31.429Z,17.57
2018-03-03T11:40:58.785Z,17.20
2018-03-03T11:43:26.188Z,18.13
2018-03-03T11:45:54.473Z,17.50
2018-03-03T11:48:21.831Z,19.43
2018-03-03T11:50:49.236Z,18.00
2018-03-03T11:53:16.642Z,17.73
2018-03-03T11:55:44.001Z,17.90
2018-03-03T11:58:11.363Z,18.40
2018-03-03T12:00:38.813Z,17.90
2018-03-03T12:03:06.168Z,16.93
2018-03-03T12:05:33.566Z,18.17
2018-03-03T12:08:00.954Z,18.60
2018-03-03T12:10:28.313Z,19.33
2018-03-03T12:12:55.671Z,18.70
2018-03-03T12:15:23.069Z,18.97
2018-03-03T12:17:50.420Z,18.07
2018-03-03T12:20:17.774Z,17.63
2018-03-03T12:22:45.182Z,18.67
2018-03-03T12:25:12.548Z,19.10
2018-03-03T12:27:39.949Z,18.90
2018-03-03T12:30:07.306Z,19.20
2018-03-03T12:32:34.669Z,18.50
2018-03-03T12:35:02.049Z,18.80
2018-03-03T12:37:29.422Z,20.00
2018-03-03T12:39:56.816Z,18.70
2018-03-03T12:42:24.172Z,18.37
2018-03-03T12:44:51.529Z,18.37
2018-03-03T12:47:18.922Z,19.30
2018-03-03T12:49:46.281Z,18.37
2018-03-03T12:52:13.665Z,19.20
2018-03-03T12:54:44.422Z,18.87
2018-03-03T12:57:11.781Z,19.00
2018-03-03T12:59:39.168Z,17.77
2018-03-03T13:02:06.589Z,18.43
2018-03-03T13:04:33.949Z,18.30
2018-03-03T13:07:01.312Z,18.20
2018-03-03T13:09:28.701Z,18.08
2018-03-03T13:11:56.121Z,18.40
2018-03-03T13:14:26.689Z,18.03
2018-03-03T13:19:50.125Z,17.50
2018-03-03T13:22:17.547Z,16.70
2018-03-03T13:24:44.904Z,17.60
2018-03-03T13:27:12.260Z,18.40
2018-03-03T13:29:39.650Z,18.60
2018-03-03T13:32:07.004Z,18.30
2018-03-03T13:34:34.361Z,18.70
2018-03-03T13:37:02.697Z,19.60
2018-03-03T13:39:30.152Z,20.50
2018-03-03T13:41:57.541Z,20.70
2018-03-03T13:44:24.914Z,22.10
2018-03-03T13:46:52.329Z,21.93
2018-03-03T13:49:19.685Z,21.70
2018-03-03T13:51:47.038Z,22.07
2018-03-03T13:54:14.418Z,21.70
2018-03-03T13:56:41.768Z,21.27
2018-03-03T13:59:09.213Z,20.63
2018-03-03T14:01:38.570Z,23.20
2018-03-03T14:04:05.972Z,22.10
2018-03-03T14:06:33.405Z,21.13
2018-03-03T14:09:00.762Z,21.80
2018-03-03T14:11:30.121Z,21.30
2018-03-03T14:13:57.511Z,20.70
2018-03-03T14:16:24.884Z,20.70
2018-03-03T14:18:52.280Z,22.80
2018-03-03T14:21:20.589Z,23.97
2018-03-03T14:23:47.944Z,22.67
2018-03-03T14:26:15.341Z,21.67
2018-03-03T14:28:42.732Z,22.60
2018-03-03T14:31:11.069Z,22.33
2018-03-03T14:33:38.425Z,22.50
2018-03-03T14:36:05.780Z,22.20
2018-03-03T14:38:33.172Z,22.03
2018-03-03T14:41:00.530Z,21.83
2018-03-03T14:43:27.963Z,21.67
2018-03-03T14:45:55.320Z,20.90
2018-03-03T14:48:22.678Z,22.10
2018-03-03T14:50:50.353Z,21.53
2018-03-03T14:53:18.658Z,23.40
2018-03-03T14:55:46.014Z,21.47
2018-03-03T14:58:13.426Z,20.73
2018-03-03T15:00:40.792Z,22.30
2018-03-03T15:03:08.257Z,21.70
2018-03-03T15:05:35.602Z,21.53
2018-03-03T15:08:02.966Z,21.70
2018-03-03T15:10:31.274Z,22.67
2018-03-03T15:12:58.687Z,21.20
2018-03-03T15:15:27.006Z,23.00
2018-03-03T15:17:54.373Z,23.13
2018-03-03T15:20:21.797Z,22.07
2018-03-03T15:22:50.190Z,23.63
2018-03-03T15:25:17.594Z,23.53
2018-03-03T15:27:44.982Z,23.10
2018-03-03T15:30:12.354Z,21.90
2018-03-03T15:32:39.761Z,22.40
2018-03-03T15:35:07.144Z,22.67
2018-03-03T15:37:34.556Z,23.87
2018-03-03T15:40:01.988Z,23.37
2018-03-03T15:42:30.357Z,22.97
2018-03-03T15:44:57.760Z,22.60
2018-03-03T15:47:25.122Z,23.83
2018-03-03T15:49:52.590Z,23.50
2018-03-03T15:52:20.015Z,21.17
2018-03-03T15:54:47.447Z,21.87
2018-03-03T15:57:14.805Z,23.60
2018-03-03T15:59:42.189Z,22.77
2018-03-03T16:02:09.592Z,22.37
2018-03-03T16:04:36.988Z,23.00
2018-03-03T16:07:04.398Z,22.80
2018-03-03T16:09:31.759Z,22.50
2018-03-03T16:11:59.124Z,23.37
2018-03-03T16:14:26.550Z,21.40
2018-03-03T16:16:54.024Z,22.37
2018-03-03T16:19:21.368Z,20.50
2018-03-03T16:21:48.721Z,19.67
2018-03-03T16:24:16.152Z,21.43
2018-03-03T16:26:43.668Z,21.87
2018-03-03T16:29:11.066Z,20.53
2018-03-03T16:31:38.421Z,20.70
2018-03-03T16:34:05.809Z,20.20
2018-03-03T16:36:33.213Z,20.83
2018-03-03T16:39:00.632Z,19.00
2018-03-03T16:41:28.055Z,19.73
2018-03-03T16:43:55.477Z,18.90
2018-03-03T16:46:22.851Z,21.63
2018-03-03T16:48:50.261Z,19.40
2018-03-03T16:51:17.650Z,20.07
2018-03-03T16:53:45.085Z,18.93
2018-03-03T16:56:13.486Z,18.90
2018-03-03T16:58:40.909Z,20.10
2018-03-03T17:01:08.309Z,18.90
2018-03-03T17:03:35.742Z,19.70
2018-03-03T17:06:03.145Z,19.80
2018-03-03T17:08:30.548Z,18.97
2018-03-03T17:10:57.936Z,20.90
2018-03-03T17:13:25.294Z,21.20
2018-03-03T17:15:53.621Z,20.53
2018-03-03T17:18:21.042Z,21.40
2018-03-03T17:20:48.514Z,20.13
2018-03-03T17:23:16.805Z,20.87
2018-03-03T17:25:44.215Z,21.00
2018-03-03T17:28:11.597Z,20.87
2018-03-03T17:30:38.984Z,20.10
2018-03-03T17:33:06.388Z,20.00
2018-03-03T17:35:33.773Z,21.00
2018-03-03T17:38:01.176Z,20.00
2018-03-03T17:40:28.596Z,19.53
2018-03-03T17:42:55.957Z,20.07
2018-03-03T17:45:23.315Z,20.00
2018-03-03T17:47:50.710Z,20.50
2018-03-03T17:50:18.146Z,20.27
2018-03-03T17:52:45.509Z,20.20
2018-03-03T17:55:12.892Z,20.30
2018-03-03T17:57:40.274Z,21.53
2018-03-03T18:00:08.598Z,20.07
2018-03-03T18:02:35.957Z,18.87
2018-03-03T18:05:03.358Z,20.10
2018-03-03T18:07:30.733Z,20.10
2018-03-03T18:09:58.129Z,19.77
2018-03-03T18:12:25.498Z,19.57
2018-03-03T18:14:52.862Z,20.50
2018-03-03T18:17:20.271Z,19.37
2018-03-03T18:19:47.634Z,18.90
2018-03-03T18:22:15.044Z,19.77
2018-03-03T18:24:42.457Z,19.30
2018-03-03T18:27:09.852Z,20.10
2018-03-03T18:29:37.274Z,18.30
2018-03-03T18:32:04.647Z,19.17
2018-03-03T18:34:32.014Z,21.27
2018-03-03T18:36:59.431Z,19.27
2018-03-03T18:39:26.797Z,20.27
2018-03-03T18:41:54.235Z,20.67
2018-03-03T18:44:21.630Z,19.87
2018-03-03T18:46:48.986Z,19.57
2018-03-03T18:49:16.388Z,19.07
2018-03-03T18:51:43.793Z,19.80
2018-03-03T18:54:11.150Z,17.37
2018-03-03T18:56:40.483Z,19.27
2018-03-03T18:59:07.896Z,19.60
2018-03-03T19:01:35.276Z,19.60
2018-03-03T19:04:03.609Z,20.10
2018-03-03T19:06:31.069Z,22.35
2018-03-03T19:08:58.430Z,21.60
2018-03-03T19:11:25.888Z,21.27
2018-03-03T19:13:53.250Z,20.83
2018-03-03T19:16:21.705Z,19.50
2018-03-03T19:18:49.118Z,20.83
2018-03-03T19:21:16.493Z,20.37
2018-03-03T19:23:43.857Z,22.20
2018-03-03T19:26:11.251Z,21.67
2018-03-03T19:28:38.666Z,20.60
2018-03-03T19:31:06.045Z,20.50
2018-03-03T19:33:33.417Z,20.00
2018-03-03T19:36:00.806Z,20.77
2018-03-03T19:38:28.250Z,19.97
2018-03-03T19:40:55.824Z,20.70
2018-03-03T19:43:23.298Z,20.07
2018-03-03T19:45:50.690Z,19.20
2018-03-03T19:48:18.063Z,19.00
2018-03-03T19:50:45.435Z,19.90
2018-03-03T19:53:12.845Z,19.90
2018-03-03T19:55:40.225Z,18.73
2018-03-03T19:58:07.613Z,19.30
2018-03-03T20:00:34.986Z,19.30
2018-03-03T20:03:02.383Z,19.03
2018-03-03T20:05:29.811Z,19.87
2018-03-03T20:07:57.223Z,19.50
2018-03-03T20:10:24.607Z,18.77
2018-03-03T20:12:52.002Z,19.73
2018-03-03T20:15:19.462Z,18.50
2018-03-03T20:17:46.983Z,18.27
2018-03-03T20:20:14.416Z,19.43
2018-03-03T20:22:41.813Z,19.60
2018-03-03T20:25:09.254Z,17.10
2018-03-03T20:27:36.675Z,20.27
2018-03-03T20:30:04.473Z,18.10
2018-03-03T20:32:32.137Z,18.20
2018-03-03T20:34:59.534Z,20.13
2018-03-03T20:37:26.936Z,19.70
2018-03-03T20:39:54.411Z,18.70
2018-03-03T20:42:21.820Z,18.80
2018-03-03T20:44:49.233Z,19.90
2018-03-03T20:47:16.775Z,18.27
2018-03-03T20:49:44.438Z,18.87
2018-03-03T20:52:11.855Z,19.50
2018-03-03T20:54:39.351Z,18.97
2018-03-03T20:57:06.727Z,20.43
2018-03-03T20:59:34.102Z,19.30
2018-03-03T21:02:01.646Z,18.70
2018-03-03T21:04:29.058Z,18.20
2018-03-03T21:06:56.506Z,19.77
2018-03-03T21:09:24.041Z,20.30
2018-03-03T21:11:52.474Z,18.20
2018-03-03T21:14:20.033Z,19.33
2018-03-03T21:16:47.455Z,20.20
2018-03-03T21:19:15.052Z,19.10
2018-03-03T21:21:42.423Z,21.40
2018-03-03T21:24:09.824Z,18.67
2018-03-03T21:26:37.318Z,19.33
2018-03-03T21:29:04.751Z,19.03
2018-03-03T21:31:32.146Z,19.80
2018-03-03T21:33:59.550Z,26.60
2018-03-03T21:36:27.855Z,21.40
2018-03-03T21:38:56.218Z,22.33
2018-03-03T21:41:24.556Z,20.90
2018-03-03T21:43:53.071Z,19.67
2018-03-03T21:46:20.460Z,21.30
2018-03-03T21:48:47.858Z,19.20
2018-03-03T21:51:15.267Z,20.30
2018-03-03T21:53:42.638Z,19.97
2018-03-03T21:56:10.031Z,20.20
2018-03-03T21:58:37.446Z,19.90
2018-03-03T22:01:04.898Z,20.13
2018-03-03T22:03:32.303Z,20.40
2018-03-03T22:05:59.706Z,19.17
2018-03-03T22:08:27.160Z,20.77
2018-03-03T22:10:54.564Z,19.77
2018-03-03T22:13:22.962Z,20.23
2018-03-03T22:15:50.328Z,20.47
2018-03-03T22:18:17.701Z,20.63
2018-03-03T22:20:45.110Z,20.40
2018-03-03T22:23:12.624Z,20.03
2018-03-03T22:25:39.991Z,20.87
2018-03-03T22:28:07.397Z,20.93
2018-03-03T22:30:34.785Z,20.00
2018-03-03T22:33:02.413Z,20.90
2018-03-03T22:35:29.823Z,20.10
2018-03-03T22:37:57.274Z,20.60
2018-03-03T22:40:25.631Z,19.70
2018-03-03T22:42:53.027Z,20.63
2018-03-03T22:45:20.539Z,19.57
2018-03-03T22:47:47.938Z,21.43
2018-03-03T22:50:15.358Z,20.67
2018-03-03T22:52:42.858Z,21.23
2018-03-03T22:55:10.349Z,21.60
2018-03-03T22:57:37.726Z,19.13
2018-03-03T23:00:05.101Z,21.13
2018-03-03T23:02:33.497Z,21.50
2018-03-03T23:05:00.908Z,20.47
2018-03-03T23:07:28.277Z,20.93
2018-03-03T23:09:55.662Z,19.77
2018-03-03T23:12:23.068Z,19.43
2018-03-03T23:14:50.449Z,18.97
2018-03-03T23:17:17.842Z,19.43
2018-03-03T23:19:45.238Z,20.53
2018-03-03T23:22:12.641Z,21.17
2018-03-03T23:24:40.010Z,20.83
2018-03-03T23:27:07.429Z,19.30
2018-03-03T23:29:34.829Z,19.80
2018-03-03T23:32:02.185Z,21.47
2018-03-03T23:34:29.590Z,21.33
2018-03-03T23:36:56.950Z,20.77
2018-03-03T23:39:24.305Z,21.27
2018-03-03T23:41:51.701Z,19.00
2018-03-03T23:44:19.110Z,21.10
2018-03-03T23:46:46.469Z,21.60
2018-03-03T23:49:13.835Z,19.40
2018-03-03T23:51:41.226Z,21.80
2018-03-03T23:54:08.840Z,21.03
2018-03-03T23:56:36.232Z,20.10
2018-03-03T23:59:03.593Z,20.97
